Time;durP1;ratioP1;P1;durP2;ratioP2;P2;SDS_P1;SDS_P2;PMS_P1;PMS_P2;Temp;Humidity;BMP_temperature;BMP_pressure;BME280_temperature;BME280_humidity;BME280_pressure;Samples;Min_cycle;Max_cycle;Signal;HPM_P1;HPM_P2
2022/06/20 00:01:20;;;;;;;;;;;;;;;17.25;69.84;98097.34;4209754;28;19915;-72
2022/06/20 00:03:25;;;;;;;;;;;;;;;17.17;71.27;98119.06;4214711;28;20337;-71
2022/06/20 00:05:31;;;;;;;;;;;;;;;17.16;71.39;98133.47;4207795;28;19916;-72
2022/06/20 00:07:31;;;;;;;;;;;;;;;17.01;71.92;98138.56;4214678;28;20399;-71
2022/06/20 00:09:31;;;;;;;;;;;;;;;16.96;72.42;98134.25;4214835;28;19920;-71
2022/06/20 00:11:35;;;;;;;;;;;;;;;16.97;71.35;98110.69;4214960;28;19931;-72
2022/06/20 00:13:38;;;;;;;;;;;;;;;17.05;71.24;98092.56;4214631;28;19920;-72
2022/06/20 00:15:38;;;;;;;;;;;;;;;17.11;70.65;98073.28;4216250;28;20395;-72
2022/06/20 00:17:39;;;;;;;;;;;;;;;17.13;72.12;98073.66;4214613;28;20160;-72
2022/06/20 00:19:42;;;;;;;;;;;;;;;17.08;71.96;98071.34;4217561;28;20303;-72
2022/06/20 00:21:42;;;;;;;;;;;;;;;16.95;72.47;98087.97;4192637;28;19920;-72
2022/06/20 00:23:43;;;;;;;;;;;;;;;16.88;72.45;98092.91;4212485;28;19923;-72
2022/06/20 00:25:43;;;;;;;;;;;;;;;16.90;71.74;98082.09;4212892;28;19920;-72
2022/06/20 00:27:44;;;;;;;;;;;;;;;16.94;71.83;98074.44;4213925;28;19994;-72
2022/06/20 00:29:44;;;;;;;;;;;;;;;16.94;71.46;98072.41;4208645;28;19938;-72
2022/06/20 00:31:44;;;;;;;;;;;;;;;16.91;71.88;98064.91;4219029;28;20295;-72
2022/06/20 00:33:44;;;;;;;;;;;;;;;16.89;72.47;98072.16;4214186;28;20363;-72
2022/06/20 00:35:45;;;;;;;;;;;;;;;16.83;73.09;98074.66;4209332;28;20553;-72
2022/06/20 00:37:45;;;;;;;;;;;;;;;16.77;73.05;98062.38;4218407;28;20463;-72
2022/06/20 00:39:48;;;;;;;;;;;;;;;16.71;72.46;98059.31;4210067;28;19916;-72
2022/06/20 00:41:49;;;;;;;;;;;;;;;16.61;73.95;98057.47;4212719;28;19956;-72
2022/06/20 00:43:51;;;;;;;;;;;;;;;16.55;74.41;98051.63;4215431;28;19916;-72
2022/06/20 00:45:53;;;;;;;;;;;;;;;16.48;75.04;98059.34;4212640;28;19920;-72
2022/06/20 00:47:59;;;;;;;;;;;;;;;16.36;75.82;98059.97;4217898;28;19967;-72
2022/06/20 00:50:06;;;;;;;;;;;;;;;16.34;75.80;98070.78;4213296;28;19916;-72
2022/06/20 00:52:16;;;;;;;;;;;;;;;16.25;76.51;98069.31;4212003;28;19924;-72
2022/06/20 00:54:22;;;;;;;;;;;;;;;16.21;76.37;98082.53;4213360;28;19959;-71
2022/06/20 00:56:30;;;;;;;;;;;;;;;16.17;76.28;98075.44;4216482;28;20804;-71
2022/06/20 00:58:48;;;;;;;;;;;;;;;16.15;76.68;98069.50;4208232;28;20374;-72
2022/06/20 01:00:49;;;;;;;;;;;;;;;16.12;76.36;98082.28;4213733;28;20397;-72
2022/06/20 01:02:51;;;;;;;;;;;;;;;16.09;76.31;98085.94;4213382;28;19916;-72
2022/06/20 01:04:53;;;;;;;;;;;;;;;16.16;75.43;98087.84;4210415;28;19927;-72
2022/06/20 01:06:55;;;;;;;;;;;;;;;16.20;75.83;98082.97;4215601;28;19926;-72
2022/06/20 01:09:08;;;;;;;;;;;;;;;16.21;76.22;98079.75;4212844;28;19920;-72
2022/06/20 01:11:23;;;;;;;;;;;;;;;16.26;75.59;98082.06;4212057;28;20245;-72
2022/06/20 01:13:23;;;;;;;;;;;;;;;16.26;76.55;98081.28;4217181;28;19922;-72
2022/06/20 01:15:25;;;;;;;;;;;;;;;16.28;75.88;98084.41;4206621;28;19955;-72
2022/06/20 01:17:37;;;;;;;;;;;;;;;16.27;75.78;98086.41;4212530;28;20367;-72
2022/06/20 01:19:56;;;;;;;;;;;;;;;16.27;76.29;98080.84;4211764;28;19916;-72
2022/06/20 01:21:56;;;;;;;;;;;;;;;16.16;77.55;98085.81;4209026;28;19920;-72
2022/06/20 01:23:57;;;;;;;;;;;;;;;16.09;76.57;98088.72;4212919;28;20027;-72
2022/06/20 01:26:12;;;;;;;;;;;;;;;16.12;76.96;98089.88;4211659;28;19924;-72
2022/06/20 01:28:14;;;;;;;;;;;;;;;16.11;77.12;98094.66;4211379;28;19915;-72
2022/06/20 01:30:14;;;;;;;;;;;;;;;16.09;77.29;98094.31;4205092;28;19971;-72
2022/06/20 01:32:14;;;;;;;;;;;;;;;16.09;77.95;98091.53;4211816;28;19920;-72
2022/06/20 01:34:16;;;;;;;;;;;;;;;16.08;77.94;98101.13;4212336;28;19916;-72
2022/06/20 01:38:37;;;;;;;;;;;;;;;16.15;77.89;98106.59;4204493;28;20299;-71
2022/06/20 01:40:39;;;;;;;;;;;;;;;16.19;77.45;98098.13;4193184;28;19928;-72
2022/06/20 01:42:41;;;;;;;;;;;;;;;16.14;77.94;98105.00;4213091;28;19927;-72
2022/06/20 01:44:43;;;;;;;;;;;;;;;16.11;78.22;98100.25;4214787;28;19916;-72
2022/06/20 01:46:44;;;;;;;;;;;;;;;16.08;78.79;98095.53;4206967;28;20012;-71
2022/06/20 01:48:49;;;;;;;;;;;;;;;16.09;78.50;98096.31;4215598;28;20626;-71
2022/06/20 01:50:49;;;;;;;;;;;;;;;15.99;79.67;98096.06;4207164;28;19923;-71
2022/06/20 01:52:49;;;;;;;;;;;;;;;16.04;78.83;98103.16;4219473;28;19942;-72
2022/06/20 01:54:54;;;;;;;;;;;;;;;16.01;79.62;98113.19;4217120;28;20375;-72
2022/06/20 01:56:55;;;;;;;;;;;;;;;15.91;80.04;98125.31;4185552;28;19995;-72
2022/06/20 01:59:03;;;;;;;;;;;;;;;15.89;79.95;98129.72;4210077;28;19990;-71
2022/06/20 02:01:05;;;;;;;;;;;;;;;15.84;80.18;98133.78;4213130;28;19927;-71
2022/06/20 02:03:08;;;;;;;;;;;;;;;15.80;79.92;98135.81;4213009;28;20323;-71
2022/06/20 02:05:11;;;;;;;;;;;;;;;15.80;79.97;98129.44;4215753;28;19943;-71
2022/06/20 02:07:12;;;;;;;;;;;;;;;15.75;80.63;98133.50;4211879;28;19954;-71
2022/06/20 02:09:12;;;;;;;;;;;;;;;15.77;80.52;98130.31;4210197;28;19933;-71
2022/06/20 02:11:19;;;;;;;;;;;;;;;15.78;80.49;98127.09;4210401;28;19912;-71
2022/06/20 02:13:20;;;;;;;;;;;;;;;15.70;80.77;98123.59;4209046;28;20113;-71
2022/06/20 02:15:21;;;;;;;;;;;;;;;15.68;81.06;98130.81;4213224;28;20259;-71
2022/06/20 02:17:25;;;;;;;;;;;;;;;15.65;80.61;98109.38;4211290;28;19916;-71
2022/06/20 02:19:29;;;;;;;;;;;;;;;15.60;81.22;98105.00;4210563;28;19916;-71
2022/06/20 02:21:31;;;;;;;;;;;;;;;15.54;81.82;98101.09;4210288;28;19938;-71
2022/06/20 02:23:34;;;;;;;;;;;;;;;15.51;82.04;98085.22;4211879;28;19923;-71
2022/06/20 02:25:34;;;;;;;;;;;;;;;15.42;82.34;98080.19;4211528;28;19923;-70
2022/06/20 02:27:38;;;;;;;;;;;;;;;15.45;82.45;98084.91;4209495;28;20275;-70
2022/06/20 02:29:38;;;;;;;;;;;;;;;15.42;82.25;98087.75;4210637;28;20356;-70
2022/06/20 02:31:38;;;;;;;;;;;;;;;15.37;82.97;98093.78;4215806;28;19927;-71
2022/06/20 02:33:39;;;;;;;;;;;;;;;15.32;82.77;98089.47;4209731;28;20179;-71
2022/06/20 02:35:39;;;;;;;;;;;;;;;15.32;83.37;98083.13;4212163;28;20424;-71
2022/06/20 02:37:40;;;;;;;;;;;;;;;15.30;82.42;98077.94;4211065;28;19923;-71
2022/06/20 02:39:41;;;;;;;;;;;;;;;15.25;83.22;98070.06;4216012;28;19966;-71
2022/06/20 02:41:43;;;;;;;;;;;;;;;15.24;82.99;98076.06;4204026;28;19922;-71
2022/06/20 02:43:49;;;;;;;;;;;;;;;15.22;83.02;98070.88;4210629;28;19916;-71
2022/06/20 02:45:51;;;;;;;;;;;;;;;15.21;82.79;98069.31;4213778;28;20759;-71
2022/06/20 02:47:54;;;;;;;;;;;;;;;15.18;83.40;98070.94;4215421;28;20010;-71
2022/06/20 02:49:56;;;;;;;;;;;;;;;15.12;84.13;98066.25;4209978;28;19918;-71
2022/06/20 02:51:58;;;;;;;;;;;;;;;15.05;85.06;98066.34;4209820;28;19920;-71
2022/06/20 02:54:02;;;;;;;;;;;;;;;14.97;85.71;98053.72;4206684;28;19937;-71
2022/06/20 02:56:04;;;;;;;;;;;;;;;14.95;86.06;98051.34;4207027;28;19964;-71
2022/06/20 02:58:11;;;;;;;;;;;;;;;14.96;85.82;98044.56;4210621;28;20322;-71
2022/06/20 03:00:13;;;;;;;;;;;;;;;14.96;86.54;98033.44;4208629;28;19983;-71
2022/06/20 03:02:16;;;;;;;;;;;;;;;14.89;86.98;98036.28;4207290;28;19916;-71
2022/06/20 03:04:16;;;;;;;;;;;;;;;14.88;87.04;98029.94;4216209;28;20347;-71
2022/06/20 03:06:29;;;;;;;;;;;;;;;14.92;86.65;98037.47;4214728;28;19977;-71
2022/06/20 03:08:30;;;;;;;;;;;;;;;14.91;87.22;98033.13;4214395;28;19924;-71
2022/06/20 03:10:40;;;;;;;;;;;;;;;14.89;87.16;98019.59;4211902;28;19931;-71
2022/06/20 03:12:40;;;;;;;;;;;;;;;14.90;87.40;98012.84;4212665;28;20364;-71
2022/06/20 03:14:43;;;;;;;;;;;;;;;14.89;87.41;98006.47;4214041;28;19920;-71
2022/06/20 03:16:43;;;;;;;;;;;;;;;14.90;86.98;98015.63;4209141;28;19919;-71
2022/06/20 03:18:45;;;;;;;;;;;;;;;14.89;87.73;98011.22;4215565;28;19920;-71
2022/06/20 03:20:46;;;;;;;;;;;;;;;14.89;87.75;98014.00;4215718;28;19980;-71
2022/06/20 03:22:49;;;;;;;;;;;;;;;14.96;87.00;98015.91;4215550;28;19919;-71
2022/06/20 03:24:51;;;;;;;;;;;;;;;14.95;87.30;98011.56;4210779;28;19923;-71
2022/06/20 03:26:51;;;;;;;;;;;;;;;14.99;87.03;98007.53;4211008;28;20326;-71
2022/06/20 03:28:52;;;;;;;;;;;;;;;15.00;87.25;97988.81;4213240;28;19920;-71
2022/06/20 03:30:53;;;;;;;;;;;;;;;15.04;87.24;97986.75;4209815;28;19946;-71
2022/06/20 03:32:53;;;;;;;;;;;;;;;15.05;87.88;97982.75;4214558;28;20388;-71
2022/06/20 03:34:53;;;;;;;;;;;;;;;15.05;88.47;97977.19;4212412;28;19920;-71
2022/06/20 03:36:54;;;;;;;;;;;;;;;15.06;88.37;97968.44;4210617;27;19969;-71
2022/06/20 03:38:55;;;;;;;;;;;;;;;15.12;86.88;97971.53;4216422;28;19916;-71
2022/06/20 03:40:55;;;;;;;;;;;;;;;15.13;88.02;97959.94;4220532;28;19920;-71
2022/06/20 03:42:57;;;;;;;;;;;;;;;15.14;86.57;97960.72;4209254;28;20317;-71
2022/06/20 03:44:59;;;;;;;;;;;;;;;15.16;86.74;97992.56;4210577;28;20287;-71
2022/06/20 03:47:03;;;;;;;;;;;;;;;15.17;88.21;98097.25;4210460;28;19920;-71
2022/06/20 03:49:03;;;;;;;;;;;;;;;15.16;88.40;98215.47;4218431;28;20213;-71
2022/06/20 03:51:06;;;;;;;;;;;;;;;15.01;89.38;98247.47;4211625;28;19916;-71
2022/06/20 03:53:18;;;;;;;;;;;;;;;14.93;90.07;98222.91;4214617;28;19920;-71
2022/06/20 03:55:37;;;;;;;;;;;;;;;14.92;90.31;98226.88;4213060;28;19923;-70
2022/06/20 03:57:55;;;;;;;;;;;;;;;14.74;91.52;98252.13;4206221;28;19928;-70
2022/06/20 04:00:00;;;;;;;;;;;;;;;14.78;91.20;98275.94;4209765;28;19949;-70
2022/06/20 04:02:00;;;;;;;;;;;;;;;14.81;91.12;98261.22;4208746;28;20236;-70
2022/06/20 04:04:02;;;;;;;;;;;;;;;14.83;91.10;98252.44;4208678;28;20283;-70
2022/06/20 04:06:03;;;;;;;;;;;;;;;14.82;90.64;98264.78;4209303;28;19978;-71
2022/06/20 04:08:06;;;;;;;;;;;;;;;14.78;91.34;98259.22;4207906;28;19924;-69
2022/06/20 04:12:44;;;;;;;;;;;;;;;14.81;91.21;98221.41;4209451;28;20302;-70
2022/06/20 04:15:04;;;;;;;;;;;;;;;14.84;91.00;98212.25;4209728;28;19920;-71
2022/06/20 04:19:34;;;;;;;;;;;;;;;14.77;91.83;98157.41;4208598;28;19927;-71
2022/06/20 04:21:39;;;;;;;;;;;;;;;14.71;90.85;98159.03;4214583;28;20395;-71
2022/06/20 04:23:39;;;;;;;;;;;;;;;14.66;90.85;98153.16;4212578;28;20305;-71
2022/06/20 04:25:45;;;;;;;;;;;;;;;14.60;91.04;98138.88;4211194;28;19969;-71
2022/06/20 04:27:48;;;;;;;;;;;;;;;14.67;90.77;98147.16;4214267;28;19972;-71
2022/06/20 04:30:01;;;;;;;;;;;;;;;14.71;90.41;98141.53;4212384;28;19968;-70
2022/06/20 04:32:13;;;;;;;;;;;;;;;14.80;89.76;98141.84;4211251;28;20490;-70
2022/06/20 04:34:16;;;;;;;;;;;;;;;14.88;87.96;98121.06;4210919;28;19916;-70
2022/06/20 04:36:25;;;;;;;;;;;;;;;14.94;87.43;98113.06;4214485;27;19959;-71
2022/06/20 04:38:30;;;;;;;;;;;;;;;14.96;88.03;98125.34;4206714;28;20518;-71
2022/06/20 04:40:43;;;;;;;;;;;;;;;15.01;86.76;98129.69;4215373;28;19916;-71
2022/06/20 04:42:47;;;;;;;;;;;;;;;15.09;86.33;98092.97;4214816;28;19915;-71
2022/06/20 04:44:54;;;;;;;;;;;;;;;15.13;87.89;98071.41;4214853;28;19923;-71
2022/06/20 04:47:13;;;;;;;;;;;;;;;15.12;88.23;98080.19;4212274;28;19916;-70
2022/06/20 04:49:15;;;;;;;;;;;;;;;15.14;87.96;98067.44;4212439;28;20316;-70
2022/06/20 04:51:17;;;;;;;;;;;;;;;15.18;87.83;98059.00;4214943;28;19919;-70
2022/06/20 04:53:23;;;;;;;;;;;;;;;15.17;88.30;98054.66;4208208;28;20001;-70
2022/06/20 04:55:24;;;;;;;;;;;;;;;15.18;87.92;98062.59;4213905;28;19915;-70
2022/06/20 04:57:26;;;;;;;;;;;;;;;15.22;87.61;98059.75;4217074;28;19916;-69
2022/06/20 04:59:28;;;;;;;;;;;;;;;15.27;87.47;98059.28;4206528;28;19912;-69
2022/06/20 05:01:32;;;;;;;;;;;;;;;15.30;87.50;98066.78;4214274;28;19927;-69
2022/06/20 05:03:35;;;;;;;;;;;;;;;15.36;86.83;98055.97;4209205;28;19959;-70
2022/06/20 05:05:39;;;;;;;;;;;;;;;15.42;86.83;98046.72;4208664;28;19923;-70
2022/06/20 05:07:39;;;;;;;;;;;;;;;15.49;85.91;98065.34;4204700;28;20187;-71
2022/06/20 05:09:47;;;;;;;;;;;;;;;15.54;85.23;98061.28;4207458;28;19943;-71
2022/06/20 05:11:51;;;;;;;;;;;;;;;15.57;84.82;98066.81;4203856;28;20011;-70
2022/06/20 05:13:58;;;;;;;;;;;;;;;15.61;84.61;98100.25;4209877;28;20151;-71
2022/06/20 05:15:59;;;;;;;;;;;;;;;15.61;83.70;98106.63;4211377;28;19912;-71
2022/06/20 05:18:01;;;;;;;;;;;;;;;15.63;83.53;98095.81;4212133;28;19976;-70
2022/06/20 05:20:06;;;;;;;;;;;;;;;15.68;83.77;98080.63;4208350;28;20231;-70
2022/06/20 05:22:11;;;;;;;;;;;;;;;15.70;83.56;98073.41;4210110;28;19916;-71
2022/06/20 05:24:16;;;;;;;;;;;;;;;15.74;83.12;98078.94;4211572;28;19916;-70
2022/06/20 05:26:19;;;;;;;;;;;;;;;15.73;83.81;98078.16;4212012;28;20374;-70
2022/06/20 05:28:21;;;;;;;;;;;;;;;15.78;84.24;98076.88;4210877;28;19927;-71
2022/06/20 05:30:24;;;;;;;;;;;;;;;15.84;83.78;98071.63;4212692;28;19916;-71
2022/06/20 05:32:32;;;;;;;;;;;;;;;15.87;84.07;98076.34;4213351;28;19927;-71
2022/06/20 05:34:41;;;;;;;;;;;;;;;15.92;84.00;98085.03;4217208;28;20276;-71
2022/06/20 05:37:03;;;;;;;;;;;;;;;15.93;83.68;98071.88;4208251;28;19916;-71
2022/06/20 05:39:12;;;;;;;;;;;;;;;15.99;83.32;98064.59;4210700;28;20288;-70
2022/06/20 05:41:13;;;;;;;;;;;;;;;16.07;83.14;98052.09;4211259;28;20271;-71
2022/06/20 05:43:20;;;;;;;;;;;;;;;16.16;82.73;98046.75;4208738;28;19922;-71
2022/06/20 05:45:22;;;;;;;;;;;;;;;16.26;83.36;98048.56;4213457;28;20355;-71
2022/06/20 05:47:24;;;;;;;;;;;;;;;16.29;82.51;98044.13;4214010;28;20229;-71
2022/06/20 05:49:39;;;;;;;;;;;;;;;16.37;82.40;98022.44;4212140;28;19955;-71
2022/06/20 05:51:41;;;;;;;;;;;;;;;16.51;82.96;98030.56;4205618;28;19927;-71
2022/06/20 05:53:44;;;;;;;;;;;;;;;16.62;82.49;98033.13;4217524;28;19946;-71
2022/06/20 05:55:47;;;;;;;;;;;;;;;16.90;80.39;98048.56;4210964;28;19916;-70
2022/06/20 05:57:48;;;;;;;;;;;;;;;17.05;79.53;98055.44;4217272;28;19970;-71
2022/06/20 05:59:53;;;;;;;;;;;;;;;17.19;78.91;98051.53;4203463;28;19912;-71
2022/06/20 06:01:55;;;;;;;;;;;;;;;17.29;78.78;98045.72;4210796;28;20253;-71
2022/06/20 06:04:02;;;;;;;;;;;;;;;17.46;75.82;98048.53;4211014;28;19931;-71
2022/06/20 06:06:07;;;;;;;;;;;;;;;17.41;77.87;98050.66;4211278;28;20411;-71
2022/06/20 06:08:18;;;;;;;;;;;;;;;17.35;78.39;98052.38;4211532;28;20351;-70
2022/06/20 06:10:26;;;;;;;;;;;;;;;17.26;78.65;98043.00;4214125;28;19947;-70
2022/06/20 06:12:31;;;;;;;;;;;;;;;17.33;78.22;98059.63;4212363;28;20379;-71
2022/06/20 06:14:34;;;;;;;;;;;;;;;17.42;76.23;98082.19;4216548;28;20136;-71
2022/06/20 06:16:46;;;;;;;;;;;;;;;17.31;77.91;98107.59;4211425;28;19916;-71
2022/06/20 06:19:05;;;;;;;;;;;;;;;17.11;78.43;98137.56;4210367;28;20100;-71
2022/06/20 06:21:05;;;;;;;;;;;;;;;16.87;78.14;98139.63;4213612;28;19920;-71
2022/06/20 06:23:07;;;;;;;;;;;;;;;16.73;79.73;98123.94;4213657;28;20711;-71
2022/06/20 06:25:16;;;;;;;;;;;;;;;16.65;79.78;98083.34;4213612;28;19923;-71
2022/06/20 06:27:20;;;;;;;;;;;;;;;16.61;81.26;98062.28;4210556;28;19916;-71
2022/06/20 06:29:26;;;;;;;;;;;;;;;16.62;79.76;98049.88;4209127;28;19982;-71
2022/06/20 06:31:37;;;;;;;;;;;;;;;16.74;80.65;98044.50;4211843;28;20444;-71
2022/06/20 06:33:43;;;;;;;;;;;;;;;16.85;82.37;98055.44;4208269;28;19990;-71
2022/06/20 06:35:45;;;;;;;;;;;;;;;16.94;80.67;98061.25;4211625;28;20288;-71
2022/06/20 06:37:50;;;;;;;;;;;;;;;17.03;82.20;98069.84;4216896;28;19994;-71
2022/06/20 06:40:03;;;;;;;;;;;;;;;17.10;81.98;98089.25;4210397;28;19969;-71
2022/06/20 06:42:04;;;;;;;;;;;;;;;17.18;79.54;98081.50;4215939;28;19973;-71
2022/06/20 06:44:13;;;;;;;;;;;;;;;17.23;78.42;98071.84;4218018;28;19916;-71
2022/06/20 06:46:15;;;;;;;;;;;;;;;17.32;77.05;98064.44;4213265;28;19920;-71
2022/06/20 06:48:20;;;;;;;;;;;;;;;17.28;77.88;98060.91;4213940;28;19962;-71
2022/06/20 06:50:53;;;;;;;;;;;;;;;17.22;77.37;98051.47;4214141;28;19927;-71
2022/06/20 06:52:58;;;;;;;;;;;;;;;17.25;77.71;98049.81;4185499;28;19916;-71
2022/06/20 06:55:02;;;;;;;;;;;;;;;17.35;78.58;98054.38;4213839;28;20013;-71
2022/06/20 06:57:09;;;;;;;;;;;;;;;17.42;77.83;98048.63;4214699;28;19962;-71
2022/06/20 06:59:16;;;;;;;;;;;;;;;17.62;77.89;98042.97;4216104;28;19974;-71
2022/06/20 07:01:20;;;;;;;;;;;;;;;17.75;76.56;98049.50;4219780;28;19923;-71
2022/06/20 07:03:30;;;;;;;;;;;;;;;17.76;76.19;98048.25;4218129;28;20021;-71
2022/06/20 07:05:38;;;;;;;;;;;;;;;17.83;77.11;98052.91;4214272;28;19927;-71
2022/06/20 07:07:44;;;;;;;;;;;;;;;17.88;77.35;98069.19;4214269;28;20259;-71
2022/06/20 07:09:49;;;;;;;;;;;;;;;17.74;76.30;98069.50;4216563;28;19923;-71
2022/06/20 07:11:58;;;;;;;;;;;;;;;17.76;76.18;98078.25;4212764;28;19932;-71
2022/06/20 07:14:02;;;;;;;;;;;;;;;17.78;75.99;98065.38;4213762;28;20275;-71
2022/06/20 07:16:06;;;;;;;;;;;;;;;17.69;75.93;98060.38;4208272;28;20412;-71
2022/06/20 07:18:14;;;;;;;;;;;;;;;17.75;74.88;98054.28;4211729;28;19920;-71
2022/06/20 07:20:15;;;;;;;;;;;;;;;17.75;76.77;98069.06;4214735;28;19927;-71
2022/06/20 07:22:17;;;;;;;;;;;;;;;17.66;76.68;98082.84;4215372;28;20038;-71
2022/06/20 07:24:19;;;;;;;;;;;;;;;17.61;77.40;98100.13;4210021;28;19976;-71
2022/06/20 07:26:22;;;;;;;;;;;;;;;17.56;76.56;98095.88;4216939;28;20456;-71
2022/06/20 07:28:34;;;;;;;;;;;;;;;17.50;76.39;98099.59;4213740;28;20383;-71
2022/06/20 07:30:40;;;;;;;;;;;;;;;17.46;76.09;98104.47;4214487;28;20418;-71
2022/06/20 07:32:45;;;;;;;;;;;;;;;17.38;76.47;98099.06;4219250;28;19920;-71
2022/06/20 07:34:53;;;;;;;;;;;;;;;17.37;76.71;98094.66;4211548;28;19916;-71
2022/06/20 07:36:56;;;;;;;;;;;;;;;17.35;77.39;98094.31;4208196;28;19917;-71
2022/06/20 07:39:05;;;;;;;;;;;;;;;17.21;77.87;98085.44;4220188;28;19920;-71
2022/06/20 07:41:13;;;;;;;;;;;;;;;17.11;78.21;98076.06;4210890;28;19938;-71
2022/06/20 07:43:17;;;;;;;;;;;;;;;16.94;79.62;98068.84;4210630;28;20379;-71
2022/06/20 07:45:22;;;;;;;;;;;;;;;17.19;78.26;98076.69;4212965;28;19916;-71
2022/06/20 07:47:49;;;;;;;;;;;;;;;17.27;77.91;98078.91;4209955;28;20452;-71
2022/06/20 07:49:52;;;;;;;;;;;;;;;17.45;77.79;98072.13;4215571;28;19930;-71
2022/06/20 07:51:55;;;;;;;;;;;;;;;17.52;78.50;98078.34;4215105;28;19911;-71
2022/06/20 07:54:07;;;;;;;;;;;;;;;17.67;77.43;98078.81;4214997;28;19916;-71
2022/06/20 07:56:23;;;;;;;;;;;;;;;17.78;77.54;98100.97;4213051;28;19916;-71
2022/06/20 07:58:26;;;;;;;;;;;;;;;17.56;77.06;98123.84;4214700;28;19916;-71
2022/06/20 08:00:32;;;;;;;;;;;;;;;17.51;77.22;98137.53;4215565;28;19935;-71
2022/06/20 08:02:33;;;;;;;;;;;;;;;17.52;77.60;98139.88;4213399;28;20007;-71
2022/06/20 08:04:35;;;;;;;;;;;;;;;17.51;76.91;98131.94;4211126;28;20367;-71
2022/06/20 08:06:35;;;;;;;;;;;;;;;17.29;78.54;98126.00;4210335;28;20112;-71
2022/06/20 08:08:58;;;;;;;;;;;;;;;17.32;78.19;98141.94;4214635;28;20418;-71
2022/06/20 08:10:58;;;;;;;;;;;;;;;17.30;79.03;98136.78;4206689;28;19920;-71
2022/06/20 08:13:09;;;;;;;;;;;;;;;17.37;78.81;98158.19;4213685;28;20389;-71
2022/06/20 08:15:14;;;;;;;;;;;;;;;17.13;79.80;98171.47;4213297;28;20010;-71
2022/06/20 08:17:14;;;;;;;;;;;;;;;17.02;79.83;98170.88;4213615;28;19990;-71
2022/06/20 08:19:14;;;;;;;;;;;;;;;16.92;80.11;98178.25;4212731;28;20624;-71
2022/06/20 08:21:18;;;;;;;;;;;;;;;16.89;81.16;98173.53;4217550;28;19948;-71
2022/06/20 08:23:27;;;;;;;;;;;;;;;16.73;82.57;98165.84;4214307;28;20749;-71
2022/06/20 08:25:34;;;;;;;;;;;;;;;16.78;83.37;98148.56;4211026;28;20156;-71
2022/06/20 08:27:42;;;;;;;;;;;;;;;16.81;82.42;98138.56;4212301;28;19923;-70
2022/06/20 08:29:47;;;;;;;;;;;;;;;16.87;85.15;98130.44;4212562;28;19923;-70
2022/06/20 08:31:50;;;;;;;;;;;;;;;16.72;88.88;98107.59;4217826;28;20077;-71
2022/06/20 08:33:54;;;;;;;;;;;;;;;16.79;89.43;98065.53;4212557;28;19923;-71
2022/06/20 08:36:00;;;;;;;;;;;;;;;16.77;90.40;98049.22;4209623;27;20003;-71
2022/06/20 08:38:20;;;;;;;;;;;;;;;16.71;90.90;98086.44;4211787;28;19924;-71
2022/06/20 08:40:39;;;;;;;;;;;;;;;16.56;91.14;98113.84;4202822;28;20248;-71
2022/06/20 08:42:51;;;;;;;;;;;;;;;16.53;91.55;98129.44;4214574;28;19927;-71
2022/06/20 08:44:54;;;;;;;;;;;;;;;16.24;93.42;98142.31;4213833;28;20271;-71
2022/06/20 08:46:57;;;;;;;;;;;;;;;16.11;93.65;98158.84;4210630;28;19920;-71
2022/06/20 08:49:03;;;;;;;;;;;;;;;15.95;96.11;98156.72;4212465;28;19923;-71
2022/06/20 08:51:27;;;;;;;;;;;;;;;16.02;93.78;98147.44;4215972;28;19912;-71
2022/06/20 08:53:48;;;;;;;;;;;;;;;15.70;96.57;98161.88;4209508;28;19966;-71
2022/06/20 08:55:51;;;;;;;;;;;;;;;15.78;95.99;98165.34;4210180;28;19923;-71
2022/06/20 08:58:09;;;;;;;;;;;;;;;15.40;97.57;98159.88;4213716;28;19916;-71
2022/06/20 09:00:17;;;;;;;;;;;;;;;15.50;97.83;98147.78;4211467;28;19920;-71
2022/06/20 09:02:20;;;;;;;;;;;;;;;15.43;95.91;98126.34;4212986;28;19923;-71
2022/06/20 09:04:30;;;;;;;;;;;;;;;15.47;95.35;98134.66;4209255;28;20688;-71
2022/06/20 09:06:33;;;;;;;;;;;;;;;15.36;96.09;98159.09;4212509;28;20279;-71
2022/06/20 09:08:59;;;;;;;;;;;;;;;15.25;97.77;98164.81;4213687;28;19919;-71
2022/06/20 09:11:00;;;;;;;;;;;;;;;15.13;98.34;98173.72;4201862;28;20289;-71
2022/06/20 09:13:07;;;;;;;;;;;;;;;15.17;97.31;98175.25;4215690;28;19912;-70
2022/06/20 09:15:16;;;;;;;;;;;;;;;14.90;99.03;98168.81;4211773;28;20265;-70
2022/06/20 09:17:22;;;;;;;;;;;;;;;14.73;99.29;98172.53;4211766;28;20275;-70
2022/06/20 09:19:31;;;;;;;;;;;;;;;14.73;100.00;98187.28;4206675;28;19926;-71
2022/06/20 09:21:35;;;;;;;;;;;;;;;14.60;97.54;98198.13;4208067;28;19916;-71
2022/06/20 09:23:52;;;;;;;;;;;;;;;14.30;100.00;98211.88;4211935;28;19919;-71
2022/06/20 09:26:03;;;;;;;;;;;;;;;14.13;100.00;98224.72;4211783;28;19916;-70
2022/06/20 09:28:30;;;;;;;;;;;;;;;14.16;100.00;98220.34;4217451;28;19927;-70
2022/06/20 09:30:37;;;;;;;;;;;;;;;14.08;100.00;98225.16;4217519;28;19968;-70
2022/06/20 09:32:49;;;;;;;;;;;;;;;14.06;100.00;98230.31;4215629;28;19915;-71
2022/06/20 09:34:57;;;;;;;;;;;;;;;14.10;100.00;98247.00;4211516;28;19965;-70
2022/06/20 09:37:09;;;;;;;;;;;;;;;13.88;100.00;98247.13;4214477;27;19915;-70
2022/06/20 09:39:26;;;;;;;;;;;;;;;13.87;100.00;98239.97;4209457;28;20103;-71
2022/06/20 09:41:26;;;;;;;;;;;;;;;13.76;100.00;98265.06;4213454;28;19912;-71
2022/06/20 09:43:46;;;;;;;;;;;;;;;13.72;100.00;98260.69;4213924;28;20529;-70
2022/06/20 09:45:59;;;;;;;;;;;;;;;13.62;99.66;98255.97;4210978;28;19959;-70
2022/06/20 09:48:23;;;;;;;;;;;;;;;13.65;97.61;98260.72;4212905;28;20267;-70
2022/06/20 09:50:37;;;;;;;;;;;;;;;13.57;99.46;98265.56;4212823;28;19916;-70
2022/06/20 09:52:37;;;;;;;;;;;;;;;13.50;99.83;98262.78;4207550;28;19916;-70
2022/06/20 09:54:56;;;;;;;;;;;;;;;13.38;98.74;98266.00;4211660;28;19994;-70
2022/06/20 09:56:56;;;;;;;;;;;;;;;13.42;96.57;98278.69;4212569;28;19915;-70
2022/06/20 09:59:15;;;;;;;;;;;;;;;13.34;95.72;98287.47;4214546;28;20682;-70
2022/06/20 10:01:15;;;;;;;;;;;;;;;13.34;96.32;98271.56;4211450;28;19920;-70
2022/06/20 10:03:20;;;;;;;;;;;;;;;13.24;96.18;98272.41;4211031;28;19916;-70
2022/06/20 10:05:40;;;;;;;;;;;;;;;13.26;94.54;98274.78;4217081;28;19977;-70
2022/06/20 10:07:51;;;;;;;;;;;;;;;13.13;94.49;98277.13;4206439;28;19924;-70
2022/06/20 10:10:05;;;;;;;;;;;;;;;13.08;94.46;98274.78;4208943;28;19919;-70
2022/06/20 10:12:21;;;;;;;;;;;;;;;13.17;94.09;98275.94;4210784;28;20276;-70
2022/06/20 10:14:28;;;;;;;;;;;;;;;13.06;94.46;98279.94;4214359;28;19997;-70
2022/06/20 10:16:34;;;;;;;;;;;;;;;13.13;94.96;98277.13;4220574;28;20428;-70
2022/06/20 10:18:42;;;;;;;;;;;;;;;13.09;92.62;98293.03;4210030;28;20332;-70
2022/06/20 10:20:50;;;;;;;;;;;;;;;13.03;91.94;98286.28;4217784;28;20232;-70
2022/06/20 10:23:09;;;;;;;;;;;;;;;13.03;91.80;98287.09;4216596;28;20283;-70
2022/06/20 10:25:10;;;;;;;;;;;;;;;13.09;90.61;98306.91;4217498;28;20107;-70
2022/06/20 10:27:16;;;;;;;;;;;;;;;13.04;89.87;98319.22;4216719;28;20287;-70
2022/06/20 10:29:24;;;;;;;;;;;;;;;12.96;89.35;98306.53;4222773;28;19916;-70
2022/06/20 10:31:35;;;;;;;;;;;;;;;12.94;90.18;98315.25;4216057;28;19922;-70
2022/06/20 10:33:45;;;;;;;;;;;;;;;12.93;90.64;98321.22;4211197;28;20014;-70
2022/06/20 10:36:08;;;;;;;;;;;;;;;12.93;90.90;98330.34;4216512;27;19920;-70
2022/06/20 10:38:17;;;;;;;;;;;;;;;12.89;90.74;98340.63;4210514;28;19920;-70
2022/06/20 10:40:31;;;;;;;;;;;;;;;12.94;91.42;98358.91;4217173;28;20148;-70
2022/06/20 10:43:01;;;;;;;;;;;;;;;12.81;90.98;98352.13;4222620;28;19991;-70
2022/06/20 10:45:13;;;;;;;;;;;;;;;12.85;90.96;98367.63;4170126;28;19917;-70
2022/06/20 10:47:19;;;;;;;;;;;;;;;12.90;91.76;98360.88;4202146;28;19920;-70
2022/06/20 10:49:37;;;;;;;;;;;;;;;12.94;90.58;98370.00;4214752;28;20191;-70
2022/06/20 10:51:43;;;;;;;;;;;;;;;13.05;90.51;98381.09;4217152;28;19926;-70
2022/06/20 10:53:44;;;;;;;;;;;;;;;12.97;91.34;98379.50;4217220;28;20348;-70
2022/06/20 10:55:47;;;;;;;;;;;;;;;12.95;90.94;98379.91;4217747;28;19922;-70
2022/06/20 10:58:09;;;;;;;;;;;;;;;12.93;91.65;98383.09;4218351;28;20012;-70
2022/06/20 11:00:12;;;;;;;;;;;;;;;13.01;89.56;98400.56;4215825;28;20439;-70
2022/06/20 11:02:27;;;;;;;;;;;;;;;12.93;89.76;98385.88;4220828;28;19915;-70